createdAt,value
2019-01-25T00:01:13.427Z,45.70
2019-01-25T00:03:45.384Z,41.07
2019-01-25T00:06:19.680Z,42.87
2019-01-25T00:08:51.409Z,46.43
2019-01-25T00:11:23.556Z,40.83
2019-01-25T00:13:55.759Z,46.40
2019-01-25T00:16:28.884Z,39.83
2019-01-25T00:19:00.755Z,50.37
2019-01-25T00:21:35.178Z,42.17
2019-01-25T00:24:07.385Z,46.87
2019-01-25T00:26:41.999Z,37.70
2019-01-25T00:29:13.909Z,41.90
2019-01-25T00:31:45.527Z,49.23
2019-01-25T00:34:17.191Z,52.13
2019-01-25T00:36:50.571Z,43.13
2019-01-25T00:39:22.258Z,48.17
2019-01-25T00:41:54.071Z,40.93
2019-01-25T00:44:28.757Z,44.70
2019-01-25T00:47:01.577Z,46.47
2019-01-25T00:49:33.910Z,48.73
2019-01-25T00:52:05.712Z,44.33
2019-01-25T00:54:41.261Z,43.10
2019-01-25T00:57:23.134Z,47.17
2019-01-25T01:00:01.402Z,45.77
2019-01-25T01:02:43.790Z,44.80
2019-01-25T01:05:22.574Z,45.47
2019-01-25T01:07:56.537Z,44.10
2019-01-25T01:10:34.018Z,42.87
2019-01-25T01:13:07.784Z,46.50
2019-01-25T01:15:41.951Z,43.30
2019-01-25T01:18:16.507Z,43.80
2019-01-25T01:20:48.287Z,48.40
2019-01-25T01:23:20.224Z,49.90
2019-01-25T01:25:54.294Z,46.30
2019-01-25T01:28:26.129Z,45.87
2019-01-25T01:30:57.771Z,47.47
2019-01-25T01:33:30.604Z,51.17
2019-01-25T01:36:08.879Z,46.13
2019-01-25T01:38:46.546Z,49.10
2019-01-25T01:41:20.332Z,47.50
2019-01-25T01:44:03.607Z,47.27
2019-01-25T01:46:38.057Z,51.40
2019-01-25T01:49:16.390Z,50.27
2019-01-25T01:51:50.375Z,47.67
2019-01-25T01:54:22.118Z,51.70
2019-01-25T01:56:57.088Z,52.63
2019-01-25T01:59:28.769Z,54.83
2019-01-25T02:02:00.786Z,46.17
2019-01-25T02:04:44.325Z,43.40
2019-01-25T02:07:18.985Z,51.03
2019-01-25T02:09:54.944Z,46.77
2019-01-25T02:12:30.481Z,56.60
2019-01-25T02:15:06.925Z,50.30
2019-01-25T02:17:51.084Z,47.90
2019-01-25T02:20:38.007Z,52.60
2019-01-25T02:23:14.045Z,50.97
2019-01-25T02:25:52.918Z,56.27
2019-01-25T02:28:24.623Z,55.13
2019-01-25T02:30:56.721Z,51.50
2019-01-25T02:33:28.560Z,52.57
2019-01-25T02:36:00.451Z,49.33
2019-01-25T02:38:32.051Z,54.73
2019-01-25T02:41:04.566Z,54.70
2019-01-25T02:43:36.252Z,48.07
2019-01-25T02:46:07.893Z,43.93
2019-01-25T02:48:39.585Z,46.67
2019-01-25T02:51:11.369Z,54.23
2019-01-25T02:53:42.932Z,49.33
2019-01-25T02:56:16.320Z,52.97
2019-01-25T02:58:48.185Z,47.23
2019-01-25T03:01:19.829Z,50.63
2019-01-25T03:03:51.532Z,49.50
2019-01-25T03:06:23.471Z,52.07
2019-01-25T03:08:55.526Z,51.20
2019-01-25T03:11:27.224Z,47.57
2019-01-25T03:13:58.921Z,47.07
2019-01-25T03:16:30.547Z,50.03
2019-01-25T03:19:02.902Z,48.90
2019-01-25T03:21:34.779Z,55.30
2019-01-25T03:24:06.678Z,46.23
2019-01-25T03:26:38.315Z,51.47
2019-01-25T03:29:09.918Z,44.10
2019-01-25T03:31:41.586Z,46.93
2019-01-25T03:34:13.219Z,46.80
2019-01-25T03:36:46.485Z,52.37
2019-01-25T03:39:18.107Z,55.47
2019-01-25T03:41:50.833Z,52.13
2019-01-25T03:44:22.450Z,56.97
2019-01-25T03:46:54.180Z,49.90
2019-01-25T03:49:25.879Z,51.60
2019-01-25T03:51:57.670Z,51.70
2019-01-25T03:54:30.346Z,55.07
2019-01-25T03:57:02.242Z,48.60
2019-01-25T03:59:45.311Z,50.23
2019-01-25T04:02:17.192Z,59.47
2019-01-25T04:04:48.808Z,48.67
2019-01-25T04:07:21.002Z,53.17
2019-01-25T04:09:53.510Z,49.70
2019-01-25T04:12:25.369Z,53.77
2019-01-25T04:14:56.994Z,58.27
2019-01-25T04:17:29.385Z,59.97
2019-01-25T04:20:01.031Z,60.47
2019-01-25T04:22:32.899Z,52.17
2019-01-25T04:25:05.917Z,63.37
2019-01-25T04:27:37.575Z,58.20
2019-01-25T04:30:14.024Z,62.47
2019-01-25T04:32:45.633Z,61.23
2019-01-25T04:35:17.223Z,62.07
2019-01-25T04:37:48.839Z,60.80
2019-01-25T04:40:20.874Z,63.63
2019-01-25T04:42:52.756Z,60.33
2019-01-25T04:45:24.546Z,69.33
2019-01-25T04:47:56.164Z,63.67
2019-01-25T04:50:28.158Z,62.77
2019-01-25T04:52:59.822Z,62.10
2019-01-25T04:55:33.894Z,79.60
2019-01-25T04:58:15.869Z,69.53
2019-01-25T05:00:48.095Z,62.40
2019-01-25T05:03:25.646Z,58.23
2019-01-25T05:06:06.448Z,55.27
2019-01-25T05:08:38.333Z,58.37
2019-01-25T05:11:24.788Z,59.30
2019-01-25T05:14:02.972Z,61.63
2019-01-25T05:16:34.709Z,59.30
2019-01-25T05:19:06.478Z,60.97
2019-01-25T05:21:38.133Z,56.93
2019-01-25T05:24:15.831Z,63.87
2019-01-25T05:26:49.069Z,58.90
2019-01-25T05:29:24.695Z,59.30
2019-01-25T05:31:57.552Z,58.43
2019-01-25T05:34:30.622Z,58.17
2019-01-25T05:37:09.403Z,66.17
2019-01-25T05:39:54.811Z,64.33
2019-01-25T05:42:32.984Z,60.80
2019-01-25T05:45:12.182Z,67.37
2019-01-25T05:47:52.496Z,62.97
2019-01-25T05:50:27.294Z,61.77
2019-01-25T05:53:06.079Z,60.97
2019-01-25T05:55:38.955Z,57.83
2019-01-25T05:58:13.494Z,60.57
2019-01-25T06:00:46.586Z,61.97
2019-01-25T06:03:18.204Z,59.77
2019-01-25T06:05:50.634Z,57.17
2019-01-25T06:08:32.687Z,57.63
2019-01-25T06:11:07.823Z,51.77
2019-01-25T06:13:41.149Z,55.63
2019-01-25T06:16:13.049Z,54.60
2019-01-25T06:18:44.758Z,55.37
2019-01-25T06:21:16.408Z,56.43
2019-01-25T06:23:48.045Z,62.03
2019-01-25T06:26:19.653Z,51.10
2019-01-25T06:28:54.528Z,52.77
2019-01-25T06:31:26.325Z,47.07
2019-01-25T06:33:58.129Z,47.20
2019-01-25T06:36:29.765Z,49.10
2019-01-25T06:39:01.438Z,46.90
2019-01-25T06:41:33.160Z,46.83
2019-01-25T06:44:04.915Z,43.13
2019-01-25T06:46:36.544Z,47.60
2019-01-25T06:49:08.182Z,52.37
2019-01-25T06:51:39.804Z,44.93
2019-01-25T06:54:11.445Z,52.93
2019-01-25T06:56:43.095Z,52.53
2019-01-25T06:59:20.879Z,44.73
2019-01-25T07:02:17.296Z,49.77
2019-01-25T07:04:50.958Z,42.70
2019-01-25T07:07:28.997Z,40.37
2019-01-25T07:10:08.342Z,44.20
2019-01-25T07:12:43.120Z,46.47
2019-01-25T07:15:17.514Z,48.67
2019-01-25T07:17:49.179Z,42.93
2019-01-25T07:20:20.802Z,46.17
2019-01-25T07:22:52.423Z,41.60
2019-01-25T07:25:24.048Z,44.47
2019-01-25T07:27:55.719Z,54.47
2019-01-25T07:30:27.494Z,48.20
2019-01-25T07:32:59.146Z,48.00
2019-01-25T07:35:30.834Z,35.37
2019-01-25T07:38:02.466Z,43.37
2019-01-25T07:40:34.262Z,42.30
2019-01-25T07:43:05.940Z,42.63
2019-01-25T07:45:37.715Z,38.70
2019-01-25T07:48:09.337Z,34.27
2019-01-25T07:50:41.103Z,41.70
2019-01-25T07:53:12.814Z,39.30
2019-01-25T07:55:44.525Z,40.97
2019-01-25T07:58:16.191Z,42.80
2019-01-25T08:00:48.186Z,41.47
2019-01-25T08:03:20.178Z,39.47
2019-01-25T08:05:52.381Z,38.87
2019-01-25T08:08:24.061Z,41.10
2019-01-25T08:10:56.062Z,35.83
2019-01-25T08:13:27.736Z,39.67
2019-01-25T08:15:59.730Z,39.47
2019-01-25T08:18:31.615Z,38.53
2019-01-25T08:21:03.368Z,35.97
2019-01-25T08:23:34.981Z,36.67
2019-01-25T08:26:06.695Z,34.77
2019-01-25T08:28:38.306Z,39.40
2019-01-25T08:31:09.923Z,35.90
2019-01-25T08:33:41.669Z,36.43
2019-01-25T08:36:13.271Z,35.87
2019-01-25T08:38:44.952Z,35.33
2019-01-25T08:41:16.588Z,36.57
2019-01-25T08:43:48.250Z,42.20
2019-01-25T08:46:19.901Z,39.43
2019-01-25T08:48:51.631Z,38.87
2019-01-25T08:51:23.410Z,34.37
2019-01-25T08:53:55.161Z,40.17
2019-01-25T08:56:26.881Z,36.07
2019-01-25T08:58:58.962Z,38.03
2019-01-25T09:01:30.623Z,39.30
2019-01-25T09:04:02.914Z,37.17
2019-01-25T09:06:32.153Z,36.40
2019-01-25T09:09:05.918Z,41.60
2019-01-25T09:11:37.584Z,35.97
2019-01-25T09:14:09.436Z,38.73
2019-01-25T09:16:41.175Z,45.73
2019-01-25T09:19:13.370Z,37.60
2019-01-25T09:21:45.029Z,39.57
2019-01-25T09:24:16.651Z,38.13
2019-01-25T09:26:48.362Z,40.43
2019-01-25T09:29:20.101Z,40.80
2019-01-25T09:31:51.768Z,44.77
2019-01-25T09:34:23.468Z,37.10
2019-01-25T09:36:55.206Z,38.03
2019-01-25T09:39:26.965Z,43.07
2019-01-25T09:41:58.625Z,39.70
2019-01-25T09:44:30.506Z,35.87
2019-01-25T09:47:02.320Z,43.50
2019-01-25T09:49:34.041Z,42.60
2019-01-25T09:52:06.101Z,45.93
2019-01-25T09:54:37.761Z,40.97
2019-01-25T09:57:09.393Z,42.53
2019-01-25T09:59:42.366Z,43.60
2019-01-25T10:02:14.637Z,40.53
2019-01-25T10:04:46.275Z,42.07
2019-01-25T10:07:18.325Z,42.13
2019-01-25T10:09:49.988Z,46.40
2019-01-25T10:12:21.632Z,45.47
2019-01-25T10:14:53.318Z,41.10
2019-01-25T10:17:24.934Z,42.03
2019-01-25T10:19:56.706Z,47.20
2019-01-25T10:22:28.584Z,43.90
2019-01-25T10:25:00.273Z,44.37
2019-01-25T10:27:31.959Z,49.10
2019-01-25T10:30:04.164Z,50.60
2019-01-25T10:32:37.638Z,42.73
2019-01-25T10:35:11.187Z,46.83
2019-01-25T10:37:43.108Z,41.93
2019-01-25T10:40:18.304Z,57.27
2019-01-25T10:42:53.168Z,48.83
2019-01-25T10:45:31.756Z,44.83
2019-01-25T10:48:03.522Z,45.83
2019-01-25T10:50:35.181Z,46.47
2019-01-25T10:53:08.751Z,45.53
2019-01-25T10:55:40.495Z,42.17
2019-01-25T10:58:12.236Z,51.27
2019-01-25T11:00:43.901Z,45.90
2019-01-25T11:03:15.551Z,44.80
2019-01-25T11:05:47.202Z,48.93
2019-01-25T11:08:18.962Z,45.70
2019-01-25T11:10:51.340Z,46.30
2019-01-25T11:13:23.004Z,41.60
2019-01-25T11:15:54.758Z,48.60
2019-01-25T11:18:26.536Z,42.67
2019-01-25T11:20:58.233Z,49.53
2019-01-25T11:23:30.003Z,45.57
2019-01-25T11:26:01.774Z,42.97
2019-01-25T11:28:33.425Z,50.60
2019-01-25T11:31:05.117Z,48.53
2019-01-25T11:33:36.987Z,44.13
2019-01-25T11:36:08.749Z,43.27
2019-01-25T11:38:41.998Z,50.23
2019-01-25T11:41:13.811Z,48.23
2019-01-25T11:43:45.458Z,45.83
2019-01-25T11:46:17.102Z,39.73
2019-01-25T11:48:48.745Z,47.60
2019-01-25T11:51:20.425Z,43.37
2019-01-25T11:53:52.530Z,44.47
2019-01-25T11:56:24.351Z,41.10
2019-01-25T11:58:59.144Z,46.70
2019-01-25T12:04:18.317Z,47.43
2019-01-25T12:06:50.176Z,45.00
2019-01-25T12:09:22.385Z,49.17
2019-01-25T12:11:54.212Z,45.53
2019-01-25T12:14:26.183Z,49.83
2019-01-25T12:16:58.401Z,49.30
2019-01-25T12:19:30.430Z,44.00
2019-01-25T12:22:02.183Z,49.57
2019-01-25T12:24:33.941Z,47.80
2019-01-25T12:27:06.520Z,47.67
2019-01-25T12:29:38.327Z,44.67
2019-01-25T12:32:09.991Z,44.57
2019-01-25T12:34:41.845Z,47.10
2019-01-25T12:37:13.518Z,49.53
2019-01-25T12:39:45.415Z,45.77
2019-01-25T12:42:17.346Z,50.23
2019-01-25T12:44:52.977Z,51.70
2019-01-25T12:47:25.782Z,42.73
2019-01-25T12:49:57.639Z,43.07
2019-01-25T12:52:29.275Z,42.97
2019-01-25T12:55:00.924Z,47.30
2019-01-25T12:57:32.831Z,50.43
2019-01-25T13:00:05.568Z,43.60
2019-01-25T13:02:37.349Z,46.53
2019-01-25T13:05:13.294Z,41.37
2019-01-25T13:07:45.022Z,42.67
2019-01-25T13:10:18.002Z,49.40
2019-01-25T13:12:49.776Z,47.17
2019-01-25T13:15:21.901Z,47.27
2019-01-25T13:17:53.649Z,45.00
2019-01-25T13:20:27.656Z,44.17
2019-01-25T13:22:59.529Z,46.07
2019-01-25T13:25:31.265Z,45.60
2019-01-25T13:28:03.145Z,39.67
2019-01-25T13:30:34.800Z,39.23
2019-01-25T13:33:06.888Z,44.67
2019-01-25T13:35:38.520Z,44.73
2019-01-25T13:38:11.702Z,42.83
2019-01-25T13:40:46.235Z,44.43
2019-01-25T13:43:18.104Z,43.57
2019-01-25T13:45:49.820Z,45.73
2019-01-25T13:48:21.618Z,41.50
2019-01-25T13:51:00.002Z,48.47
2019-01-25T13:53:33.072Z,47.07
2019-01-25T13:56:07.267Z,40.33
2019-01-25T13:58:44.203Z,45.63
2019-01-25T14:01:17.463Z,42.67
2019-01-25T14:03:49.168Z,43.77
2019-01-25T14:06:20.947Z,44.23
2019-01-25T14:08:52.802Z,43.50
2019-01-25T14:11:24.880Z,39.37
2019-01-25T14:13:56.699Z,43.10
2019-01-25T14:16:28.426Z,41.40
2019-01-25T14:19:00.179Z,41.93
2019-01-25T14:21:31.879Z,41.87
2019-01-25T14:24:03.572Z,44.17
2019-01-25T14:26:35.296Z,37.00
2019-01-25T14:29:07.241Z,45.83
2019-01-25T14:31:39.123Z,39.10
2019-01-25T14:34:10.863Z,40.53
2019-01-25T14:36:42.589Z,45.83
2019-01-25T14:39:14.303Z,43.40
2019-01-25T14:41:45.965Z,36.27
2019-01-25T14:44:17.990Z,41.40
2019-01-25T14:46:50.116Z,38.30
2019-01-25T14:49:22.035Z,42.40
2019-01-25T14:51:53.839Z,36.50
2019-01-25T14:54:25.541Z,43.17
2019-01-25T14:56:57.281Z,35.10
2019-01-25T14:59:29.056Z,35.77
2019-01-25T15:02:01.013Z,36.63
2019-01-25T15:04:32.688Z,36.70
2019-01-25T15:07:04.825Z,36.70
2019-01-25T15:09:38.053Z,42.07
2019-01-25T15:12:13.368Z,39.93
2019-01-25T15:14:45.046Z,36.80
2019-01-25T15:17:20.823Z,38.93
2019-01-25T15:19:54.380Z,32.53
2019-01-25T15:22:26.366Z,34.90
2019-01-25T15:24:58.125Z,45.17
2019-01-25T15:27:29.815Z,40.43
2019-01-25T15:30:01.459Z,39.20
2019-01-25T15:32:33.298Z,37.17
2019-01-25T15:35:06.246Z,33.77
2019-01-25T15:37:38.148Z,34.57
2019-01-25T15:40:11.586Z,32.03
2019-01-25T15:42:43.270Z,33.37
2019-01-25T15:45:16.494Z,36.10
2019-01-25T15:47:49.851Z,35.67
2019-01-25T15:50:30.198Z,35.53
2019-01-25T15:53:02.238Z,31.57
2019-01-25T15:55:34.174Z,33.70
2019-01-25T15:58:06.107Z,31.77
2019-01-25T16:00:37.742Z,31.10
2019-01-25T16:03:09.564Z,31.30
2019-01-25T16:05:41.296Z,32.20
2019-01-25T16:08:13.146Z,32.77
2019-01-25T16:10:46.863Z,38.20
2019-01-25T16:13:18.592Z,31.80
2019-01-25T16:15:50.303Z,36.90
2019-01-25T16:18:22.098Z,36.20
2019-01-25T16:20:53.818Z,38.67
2019-01-25T16:23:26.527Z,41.53
2019-01-25T16:25:58.567Z,32.30
2019-01-25T16:28:30.425Z,39.13
2019-01-25T16:31:02.175Z,31.97
2019-01-25T16:33:33.887Z,35.80
2019-01-25T16:36:06.049Z,38.30
2019-01-25T16:38:37.881Z,35.50
2019-01-25T16:41:10.002Z,33.10
2019-01-25T16:43:41.683Z,35.73
2019-01-25T16:46:13.401Z,32.37
2019-01-25T16:48:45.116Z,33.20
2019-01-25T16:51:16.798Z,36.40
2019-01-25T16:53:48.504Z,27.27
2019-01-25T16:56:20.424Z,34.40
2019-01-25T16:58:52.214Z,38.80
2019-01-25T17:01:24.048Z,33.30
2019-01-25T17:03:57.258Z,31.80
2019-01-25T17:06:28.970Z,29.00
2019-01-25T17:09:08.261Z,30.50
2019-01-25T17:11:47.518Z,30.40
2019-01-25T17:14:19.455Z,28.27
2019-01-25T17:16:58.188Z,29.07
2019-01-25T17:19:36.874Z,30.60
2019-01-25T17:22:12.473Z,30.20
2019-01-25T17:24:45.642Z,27.43
2019-01-25T17:27:17.999Z,32.17
2019-01-25T17:29:52.473Z,24.53
2019-01-25T17:32:24.294Z,24.60
2019-01-25T17:34:56.483Z,28.47
2019-01-25T17:37:39.809Z,32.27
2019-01-25T17:40:17.080Z,31.63
2019-01-25T17:42:53.234Z,27.07
2019-01-25T17:45:25.323Z,29.83
2019-01-25T17:47:57.120Z,32.70
2019-01-25T17:50:28.767Z,23.40
2019-01-25T17:53:00.465Z,32.17
2019-01-25T17:55:33.830Z,28.87
2019-01-25T17:58:08.140Z,26.23
2019-01-25T18:01:01.829Z,25.47
2019-01-25T18:03:33.593Z,25.97
2019-01-25T18:06:05.609Z,29.87
2019-01-25T18:08:37.581Z,25.33
2019-01-25T18:11:10.601Z,25.47
2019-01-25T18:13:42.268Z,26.43
2019-01-25T18:16:13.965Z,31.30
2019-01-25T18:18:46.538Z,27.43
2019-01-25T18:21:18.301Z,26.60
2019-01-25T18:23:50.116Z,29.37
2019-01-25T18:26:25.152Z,31.27
2019-01-25T18:29:29.704Z,26.60
2019-01-25T18:32:01.366Z,24.47
2019-01-25T18:34:33.095Z,26.47
2019-01-25T18:37:04.980Z,27.67
2019-01-25T18:39:36.771Z,27.00
2019-01-25T18:42:08.494Z,28.90
2019-01-25T18:44:40.249Z,21.27
2019-01-25T18:47:12.132Z,26.10
2019-01-25T18:49:43.915Z,24.73
2019-01-25T18:52:15.861Z,23.87
2019-01-25T18:54:47.887Z,23.87
2019-01-25T18:57:19.583Z,26.67
2019-01-25T18:59:51.533Z,24.07
2019-01-25T19:02:26.830Z,26.93
2019-01-25T19:05:01.293Z,23.90
2019-01-25T19:07:35.557Z,23.77
2019-01-25T19:10:11.995Z,24.77
2019-01-25T19:12:43.954Z,28.53
2019-01-25T19:15:20.169Z,26.27
2019-01-25T19:17:51.993Z,24.97
2019-01-25T19:20:23.665Z,29.17
2019-01-25T19:22:55.557Z,21.27
2019-01-25T19:25:27.241Z,24.33
2019-01-25T19:27:59.145Z,24.47
2019-01-25T19:30:35.107Z,23.90
2019-01-25T19:33:07.419Z,20.47
2019-01-25T19:35:39.287Z,26.87
2019-01-25T19:38:13.545Z,20.50
2019-01-25T19:40:45.496Z,27.33
2019-01-25T19:43:17.292Z,22.00
2019-01-25T19:45:49.764Z,21.80
2019-01-25T19:48:21.561Z,23.57
2019-01-25T19:50:54.434Z,18.40
2019-01-25T19:53:26.336Z,21.13
2019-01-25T19:55:58.102Z,21.93
2019-01-25T19:58:29.999Z,17.13
2019-01-25T20:01:01.945Z,21.20
2019-01-25T20:03:33.769Z,20.30
2019-01-25T20:06:05.833Z,21.07
2019-01-25T20:08:37.704Z,21.17
2019-01-25T20:11:09.845Z,20.63
2019-01-25T20:13:42.036Z,20.57
2019-01-25T20:16:13.873Z,23.00
2019-01-25T20:18:45.569Z,19.43
2019-01-25T20:21:17.312Z,17.80
2019-01-25T20:23:49.052Z,19.13
2019-01-25T20:26:20.833Z,17.37
2019-01-25T20:28:52.661Z,20.67
2019-01-25T20:31:24.356Z,20.07
2019-01-25T20:33:56.262Z,21.13
2019-01-25T20:36:28.900Z,19.70
2019-01-25T20:39:00.828Z,21.07
2019-01-25T20:41:32.506Z,22.50
2019-01-25T20:44:04.414Z,15.80
2019-01-25T20:46:36.069Z,16.90
2019-01-25T20:49:08.032Z,23.10
2019-01-25T20:51:39.832Z,18.30
2019-01-25T20:54:11.111Z,13.90
2019-01-25T20:56:44.407Z,13.43
2019-01-25T20:59:16.419Z,16.70
2019-01-25T21:01:53.236Z,12.17
2019-01-25T21:04:28.819Z,17.07
2019-01-25T21:07:00.534Z,21.73
2019-01-25T21:09:32.259Z,18.30
2019-01-25T21:12:05.091Z,14.60
2019-01-25T21:14:36.835Z,14.10
2019-01-25T21:17:08.785Z,18.27
2019-01-25T21:19:40.416Z,14.80
2019-01-25T21:22:12.135Z,15.20
2019-01-25T21:24:43.855Z,17.03
2019-01-25T21:27:15.625Z,11.93
2019-01-25T21:29:48.871Z,15.20
2019-01-25T21:32:20.668Z,11.97
2019-01-25T21:34:52.374Z,15.80
2019-01-25T21:37:24.238Z,15.73
2019-01-25T21:39:55.867Z,14.10
2019-01-25T21:42:27.518Z,16.07
2019-01-25T21:44:59.257Z,14.03
2019-01-25T21:47:31.034Z,13.33
2019-01-25T21:50:02.678Z,12.30
2019-01-25T21:52:34.409Z,14.87
2019-01-25T21:55:08.498Z,11.67
2019-01-25T21:57:40.208Z,13.23
2019-01-25T22:00:17.018Z,13.40
2019-01-25T22:02:48.909Z,12.17
2019-01-25T22:05:21.048Z,11.20
2019-01-25T22:07:52.883Z,11.90
2019-01-25T22:10:29.490Z,15.43
2019-01-25T22:13:04.317Z,13.20
2019-01-25T22:15:36.265Z,13.03
2019-01-25T22:18:08.789Z,9.40
2019-01-25T22:20:40.574Z,12.77
2019-01-25T22:23:12.653Z,12.60
2019-01-25T22:25:44.485Z,12.20
2019-01-25T22:28:22.894Z,10.17
2019-01-25T22:30:54.542Z,12.50
2019-01-25T22:33:26.229Z,11.33
2019-01-25T22:35:58.103Z,16.87
2019-01-25T22:38:29.774Z,13.07
2019-01-25T22:41:01.483Z,15.37
2019-01-25T22:43:36.126Z,13.80
2019-01-25T22:46:09.328Z,13.33
2019-01-25T22:48:41.113Z,13.60
2019-01-25T22:51:23.725Z,11.47
2019-01-25T22:53:58.477Z,13.03
2019-01-25T22:56:30.318Z,12.97
2019-01-25T22:59:01.984Z,13.07
2019-01-25T23:01:35.915Z,12.40
2019-01-25T23:04:54.972Z,11.60
2019-01-25T23:07:32.556Z,13.27
2019-01-25T23:10:16.090Z,13.27
2019-01-25T23:12:52.532Z,13.07
2019-01-25T23:15:28.233Z,12.03
2019-01-25T23:18:03.482Z,10.97
2019-01-25T23:20:36.714Z,13.73
2019-01-25T23:23:08.415Z,11.60
2019-01-25T23:25:40.207Z,12.80
2019-01-25T23:28:11.909Z,13.57
2019-01-25T23:30:43.686Z,12.80
2019-01-25T23:33:15.493Z,10.70
2019-01-25T23:35:47.170Z,16.50
2019-01-25T23:38:19.319Z,13.67
2019-01-25T23:40:51.160Z,12.43
2019-01-25T23:43:22.993Z,15.60
2019-01-25T23:45:55.019Z,14.57
2019-01-25T23:48:26.714Z,14.30
2019-01-25T23:50:58.623Z,14.60
2019-01-25T23:53:30.477Z,12.60
2019-01-25T23:56:02.410Z,11.77
2019-01-25T23:58:34.193Z,14.70
